sensor_id;sensor_type;location;lat;lon;timestamp;pressure;altitude;pressure_sealevel;temperature;humidity
9935;BME280;5006;41.828;23.478;2022-07-18T00:00:14;90976.50;;;20.04;nan
9935;BME280;5006;41.828;23.478;2022-07-18T00:01:20;90976.75;;;20.10;nan
9935;BME280;5006;41.828;23.478;2022-07-18T00:02:25;90977.53;;;20.10;nan
9935;BME280;5006;41.828;23.478;2022-07-18T00:03:31;90974.53;;;19.57;nan
9935;BME280;5006;41.828;23.478;2022-07-18T00:04:36;90968.50;;;19.50;nan
9935;BME280;5006;41.828;23.478;2022-07-18T00:05:42;90976.94;;;19.55;nan
9935;BME280;5006;41.828;23.478;2022-07-18T00:06:47;90973.34;;;19.58;nan
9935;BME280;5006;41.828;23.478;2022-07-18T00:07:53;90969.28;;;19.50;nan
9935;BME280;5006;41.828;23.478;2022-07-18T00:08:59;90966.81;;;19.56;nan
9935;BME280;5006;41.828;23.478;2022-07-18T00:10:06;90968.41;;;19.69;nan
9935;BME280;5006;41.828;23.478;2022-07-18T00:11:11;90966.16;;;19.68;nan
9935;BME280;5006;41.828;23.478;2022-07-18T00:12:17;90963.59;;;19.61;nan
9935;BME280;5006;41.828;23.478;2022-07-18T00:13:22;90963.31;;;19.55;nan
9935;BME280;5006;41.828;23.478;2022-07-18T00:14:27;90963.91;;;19.63;nan
9935;BME280;5006;41.828;23.478;2022-07-18T00:15:31;90964.59;;;19.35;nan
9935;BME280;5006;41.828;23.478;2022-07-18T00:16:37;90969.34;;;19.31;nan
9935;BME280;5006;41.828;23.478;2022-07-18T00:17:42;90967.25;;;19.54;nan
9935;BME280;5006;41.828;23.478;2022-07-18T00:18:48;90966.47;;;19.54;nan
9935;BME280;5006;41.828;23.478;2022-07-18T00:19:53;90972.75;;;19.67;nan
9935;BME280;5006;41.828;23.478;2022-07-18T00:20:59;90970.19;;;19.28;nan
9935;BME280;5006;41.828;23.478;2022-07-18T00:22:04;90960.41;;;19.30;nan
9935;BME280;5006;41.828;23.478;2022-07-18T00:23:10;90971.16;;;19.53;nan
9935;BME280;5006;41.828;23.478;2022-07-18T00:24:17;90967.28;;;20.14;nan
9935;BME280;5006;41.828;23.478;2022-07-18T00:25:23;90969.03;;;19.45;nan
9935;BME280;5006;41.828;23.478;2022-07-18T00:26:28;90970.69;;;19.39;nan
9935;BME280;5006;41.828;23.478;2022-07-18T00:27:34;90965.88;;;19.46;nan
9935;BME280;5006;41.828;23.478;2022-07-18T00:28:40;90972.84;;;19.47;nan
9935;BME280;5006;41.828;23.478;2022-07-18T00:29:46;90970.09;;;19.31;nan
9935;BME280;5006;41.828;23.478;2022-07-18T00:30:52;90980.06;;;19.38;nan
9935;BME280;5006;41.828;23.478;2022-07-18T00:31:56;90968.75;;;19.55;nan
9935;BME280;5006;41.828;23.478;2022-07-18T00:33:02;90971.94;;;19.18;nan
9935;BME280;5006;41.828;23.478;2022-07-18T00:34:07;90974.59;;;19.22;nan
9935;BME280;5006;41.828;23.478;2022-07-18T00:35:13;90973.75;;;19.41;nan
9935;BME280;5006;41.828;23.478;2022-07-18T00:36:18;90968.13;;;19.16;nan
9935;BME280;5006;41.828;23.478;2022-07-18T00:37:24;90979.72;;;19.36;nan
9935;BME280;5006;41.828;23.478;2022-07-18T00:38:29;90970.56;;;19.46;nan
9935;BME280;5006;41.828;23.478;2022-07-18T00:39:36;90970.88;;;19.32;nan
9935;BME280;5006;41.828;23.478;2022-07-18T00:40:41;90962.88;;;19.41;nan
9935;BME280;5006;41.828;23.478;2022-07-18T00:41:48;90969.69;;;19.33;nan
9935;BME280;5006;41.828;23.478;2022-07-18T00:42:53;90965.94;;;19.07;nan
9935;BME280;5006;41.828;23.478;2022-07-18T00:43:59;90958.47;;;19.78;nan
9935;BME280;5006;41.828;23.478;2022-07-18T00:45:04;90960.31;;;19.18;nan
9935;BME280;5006;41.828;23.478;2022-07-18T00:46:10;90963.06;;;19.34;nan
9935;BME280;5006;41.828;23.478;2022-07-18T00:47:15;90965.19;;;19.07;nan
9935;BME280;5006;41.828;23.478;2022-07-18T00:48:21;90978.84;;;19.23;nan
9935;BME280;5006;41.828;23.478;2022-07-18T00:49:26;90963.91;;;19.47;nan
9935;BME280;5006;41.828;23.478;2022-07-18T00:50:32;90974.34;;;19.32;nan
9935;BME280;5006;41.828;23.478;2022-07-18T00:51:37;90975.66;;;19.60;nan
9935;BME280;5006;41.828;23.478;2022-07-18T00:52:43;90973.28;;;19.46;nan
9935;BME280;5006;41.828;23.478;2022-07-18T00:53:49;90977.28;;;19.06;nan
9935;BME280;5006;41.828;23.478;2022-07-18T00:54:56;90970.84;;;18.96;nan
9935;BME280;5006;41.828;23.478;2022-07-18T00:56:01;90977.78;;;18.81;nan
9935;BME280;5006;41.828;23.478;2022-07-18T00:57:08;90978.84;;;19.23;nan
9935;BME280;5006;41.828;23.478;2022-07-18T00:58:13;90972.84;;;19.12;nan
9935;BME280;5006;41.828;23.478;2022-07-18T00:59:19;90972.09;;;19.63;nan
9935;BME280;5006;41.828;23.478;2022-07-18T01:00:24;90975.06;;;19.36;nan
9935;BME280;5006;41.828;23.478;2022-07-18T01:01:48;90969.00;;;19.29;nan
9935;BME280;5006;41.828;23.478;2022-07-18T01:02:53;90967.56;;;19.05;nan
9935;BME280;5006;41.828;23.478;2022-07-18T01:03:58;90971.81;;;19.25;nan
9935;BME280;5006;41.828;23.478;2022-07-18T01:05:04;90968.81;;;18.84;nan
9935;BME280;5006;41.828;23.478;2022-07-18T01:06:10;90969.38;;;19.11;nan
9935;BME280;5006;41.828;23.478;2022-07-18T01:07:15;90971.03;;;19.25;nan
9935;BME280;5006;41.828;23.478;2022-07-18T01:08:21;90969.63;;;18.62;nan
9935;BME280;5006;41.828;23.478;2022-07-18T01:09:26;90967.03;;;18.94;nan
9935;BME280;5006;41.828;23.478;2022-07-18T01:10:33;90964.81;;;18.89;nan
9935;BME280;5006;41.828;23.478;2022-07-18T01:11:38;90968.19;;;18.57;nan
9935;BME280;5006;41.828;23.478;2022-07-18T01:12:44;90970.31;;;18.27;nan
9935;BME280;5006;41.828;23.478;2022-07-18T01:13:49;90967.78;;;18.16;nan
9935;BME280;5006;41.828;23.478;2022-07-18T01:14:56;90970.38;;;17.81;nan
9935;BME280;5006;41.828;23.478;2022-07-18T01:16:01;90966.72;;;17.45;nan
9935;BME280;5006;41.828;23.478;2022-07-18T01:17:14;90965.00;;;17.77;nan
9935;BME280;5006;41.828;23.478;2022-07-18T01:18:20;90965.66;;;17.62;nan
9935;BME280;5006;41.828;23.478;2022-07-18T01:19:26;90968.16;;;17.76;nan
9935;BME280;5006;41.828;23.478;2022-07-18T01:20:32;90962.19;;;17.84;nan
9935;BME280;5006;41.828;23.478;2022-07-18T01:21:38;90968.91;;;17.76;nan
9935;BME280;5006;41.828;23.478;2022-07-18T01:22:43;90959.25;;;17.26;nan
9935;BME280;5006;41.828;23.478;2022-07-18T01:23:49;90972.25;;;17.84;nan
9935;BME280;5006;41.828;23.478;2022-07-18T01:24:54;90969.41;;;18.14;nan
9935;BME280;5006;41.828;23.478;2022-07-18T01:25:59;90975.28;;;18.32;nan
9935;BME280;5006;41.828;23.478;2022-07-18T01:27:05;90973.50;;;18.22;nan
9935;BME280;5006;41.828;23.478;2022-07-18T01:28:10;90974.53;;;17.66;nan
9935;BME280;5006;41.828;23.478;2022-07-18T01:29:15;90981.22;;;17.81;nan
9935;BME280;5006;41.828;23.478;2022-07-18T01:30:21;90981.81;;;17.92;nan
9935;BME280;5006;41.828;23.478;2022-07-18T01:31:26;90966.47;;;18.47;nan
9935;BME280;5006;41.828;23.478;2022-07-18T01:32:32;90979.31;;;18.43;nan
9935;BME280;5006;41.828;23.478;2022-07-18T01:33:37;90976.81;;;18.72;nan
9935;BME280;5006;41.828;23.478;2022-07-18T01:34:45;90976.69;;;18.59;nan
9935;BME280;5006;41.828;23.478;2022-07-18T01:35:51;90979.00;;;18.18;nan
9935;BME280;5006;41.828;23.478;2022-07-18T01:36:58;90971.19;;;18.43;nan
9935;BME280;5006;41.828;23.478;2022-07-18T01:38:03;90971.75;;;18.12;nan
9935;BME280;5006;41.828;23.478;2022-07-18T01:39:09;90971.25;;;17.97;nan
9935;BME280;5006;41.828;23.478;2022-07-18T01:40:14;90966.19;;;17.76;nan
9935;BME280;5006;41.828;23.478;2022-07-18T01:41:20;90964.06;;;17.87;nan
9935;BME280;5006;41.828;23.478;2022-07-18T01:42:25;90976.63;;;18.01;nan
9935;BME280;5006;41.828;23.478;2022-07-18T01:43:31;90977.31;;;18.05;nan
9935;BME280;5006;41.828;23.478;2022-07-18T01:44:36;90965.50;;;18.15;nan
9935;BME280;5006;41.828;23.478;2022-07-18T01:45:42;90980.31;;;18.10;nan
9935;BME280;5006;41.828;23.478;2022-07-18T01:46:47;90979.50;;;18.13;nan
9935;BME280;5006;41.828;23.478;2022-07-18T01:47:53;90982.97;;;18.14;nan
9935;BME280;5006;41.828;23.478;2022-07-18T01:48:58;90966.34;;;18.70;nan
9935;BME280;5006;41.828;23.478;2022-07-18T01:50:05;90969.31;;;18.95;nan
9935;BME280;5006;41.828;23.478;2022-07-18T01:51:12;90969.91;;;18.87;nan
9935;BME280;5006;41.828;23.478;2022-07-18T01:52:18;90965.56;;;18.89;nan
9935;BME280;5006;41.828;23.478;2022-07-18T01:53:23;90969.78;;;18.74;nan
9935;BME280;5006;41.828;23.478;2022-07-18T01:54:30;90968.28;;;18.34;nan
9935;BME280;5006;41.828;23.478;2022-07-18T01:55:35;90964.50;;;18.48;nan
9935;BME280;5006;41.828;23.478;2022-07-18T01:56:42;90976.66;;;17.78;nan
9935;BME280;5006;41.828;23.478;2022-07-18T01:57:46;90966.47;;;18.05;nan
9935;BME280;5006;41.828;23.478;2022-07-18T01:58:52;90977.59;;;17.68;nan
9935;BME280;5006;41.828;23.478;2022-07-18T01:59:57;90971.91;;;17.82;nan
9935;BME280;5006;41.828;23.478;2022-07-18T02:01:03;90969.97;;;17.82;nan
9935;BME280;5006;41.828;23.478;2022-07-18T02:02:08;90973.94;;;17.55;nan
9935;BME280;5006;41.828;23.478;2022-07-18T02:03:15;90967.56;;;17.65;nan
9935;BME280;5006;41.828;23.478;2022-07-18T02:04:20;90968.50;;;17.78;nan
9935;BME280;5006;41.828;23.478;2022-07-18T02:05:46;90961.72;;;17.44;nan
9935;BME280;5006;41.828;23.478;2022-07-18T02:06:52;90977.31;;;17.10;nan
9935;BME280;5006;41.828;23.478;2022-07-18T02:07:58;90983.75;;;16.93;nan
9935;BME280;5006;41.828;23.478;2022-07-18T02:09:03;90970.56;;;17.21;nan
9935;BME280;5006;41.828;23.478;2022-07-18T02:10:11;90970.19;;;17.19;nan
9935;BME280;5006;41.828;23.478;2022-07-18T02:11:16;90977.31;;;17.10;nan
9935;BME280;5006;41.828;23.478;2022-07-18T02:12:22;90977.75;;;17.05;nan
9935;BME280;5006;41.828;23.478;2022-07-18T02:13:27;90979.09;;;16.93;nan
9935;BME280;5006;41.828;23.478;2022-07-18T02:14:32;90987.97;;;16.67;nan
9935;BME280;5006;41.828;23.478;2022-07-18T02:15:37;90985.13;;;17.04;nan
9935;BME280;5006;41.828;23.478;2022-07-18T02:16:43;90982.72;;;17.10;nan
9935;BME280;5006;41.828;23.478;2022-07-18T02:17:48;90987.22;;;16.67;nan
9935;BME280;5006;41.828;23.478;2022-07-18T02:18:53;90977.72;;;17.08;nan
9935;BME280;5006;41.828;23.478;2022-07-18T02:19:58;90982.88;;;17.26;nan
9935;BME280;5006;41.828;23.478;2022-07-18T02:21:04;90978.34;;;17.46;nan
9935;BME280;5006;41.828;23.478;2022-07-18T02:22:10;90980.31;;;17.42;nan
9935;BME280;5006;41.828;23.478;2022-07-18T02:23:16;90978.88;;;17.37;nan
9935;BME280;5006;41.828;23.478;2022-07-18T02:24:21;90978.59;;;17.28;nan
9935;BME280;5006;41.828;23.478;2022-07-18T02:25:27;90986.19;;;17.10;nan
9935;BME280;5006;41.828;23.478;2022-07-18T02:26:33;90989.13;;;17.23;nan
9935;BME280;5006;41.828;23.478;2022-07-18T02:27:39;90990.81;;;17.40;nan
9935;BME280;5006;41.828;23.478;2022-07-18T02:28:44;90984.16;;;17.18;nan
9935;BME280;5006;41.828;23.478;2022-07-18T02:29:51;90991.97;;;16.86;nan
9935;BME280;5006;41.828;23.478;2022-07-18T02:30:55;90997.88;;;16.47;nan
9935;BME280;5006;41.828;23.478;2022-07-18T02:32:01;90996.84;;;16.34;nan
9935;BME280;5006;41.828;23.478;2022-07-18T02:33:06;91000.59;;;16.10;nan
9935;BME280;5006;41.828;23.478;2022-07-18T02:34:12;91000.47;;;16.88;nan
9935;BME280;5006;41.828;23.478;2022-07-18T02:35:17;91002.03;;;16.85;nan
9935;BME280;5006;41.828;23.478;2022-07-18T02:36:22;90993.25;;;17.04;nan
9935;BME280;5006;41.828;23.478;2022-07-18T02:37:29;90996.88;;;16.94;nan
9935;BME280;5006;41.828;23.478;2022-07-18T02:38:34;90998.34;;;17.02;nan
9935;BME280;5006;41.828;23.478;2022-07-18T02:39:39;90995.50;;;17.09;nan
9935;BME280;5006;41.828;23.478;2022-07-18T02:40:45;90989.50;;;16.35;nan
9935;BME280;5006;41.828;23.478;2022-07-18T02:41:50;90996.47;;;16.32;nan
9935;BME280;5006;41.828;23.478;2022-07-18T02:42:56;90990.22;;;16.42;nan
9935;BME280;5006;41.828;23.478;2022-07-18T02:44:00;90983.25;;;16.41;nan
9935;BME280;5006;41.828;23.478;2022-07-18T02:45:07;90988.31;;;16.39;nan
9935;BME280;5006;41.828;23.478;2022-07-18T02:46:13;90992.63;;;16.67;nan
9935;BME280;5006;41.828;23.478;2022-07-18T02:47:18;90996.63;;;16.85;nan
9935;BME280;5006;41.828;23.478;2022-07-18T02:48:24;90993.75;;;16.99;nan
9935;BME280;5006;41.828;23.478;2022-07-18T02:49:28;90991.13;;;17.19;nan
9935;BME280;5006;41.828;23.478;2022-07-18T02:50:36;90990.69;;;17.50;nan
9935;BME280;5006;41.828;23.478;2022-07-18T02:51:41;90990.16;;;17.58;nan
9935;BME280;5006;41.828;23.478;2022-07-18T02:52:48;90991.44;;;17.96;nan
9935;BME280;5006;41.828;23.478;2022-07-18T02:53:54;91002.28;;;17.24;nan
9935;BME280;5006;41.828;23.478;2022-07-18T02:54:59;90996.88;;;17.24;nan
9935;BME280;5006;41.828;23.478;2022-07-18T02:56:05;90998.13;;;17.16;nan
9935;BME280;5006;41.828;23.478;2022-07-18T02:57:10;91004.97;;;17.77;nan
9935;BME280;5006;41.828;23.478;2022-07-18T02:58:16;91002.34;;;17.70;nan
9935;BME280;5006;41.828;23.478;2022-07-18T02:59:21;91006.66;;;17.67;nan
9935;BME280;5006;41.828;23.478;2022-07-18T03:00:27;91013.56;;;17.19;nan
9935;BME280;5006;41.828;23.478;2022-07-18T03:01:32;91004.03;;;17.34;nan
9935;BME280;5006;41.828;23.478;2022-07-18T03:02:38;91005.88;;;17.44;nan
9935;BME280;5006;41.828;23.478;2022-07-18T03:03:42;91006.56;;;17.22;nan
9935;BME280;5006;41.828;23.478;2022-07-18T03:04:48;91006.06;;;17.30;nan
9935;BME280;5006;41.828;23.478;2022-07-18T03:05:53;90996.84;;;17.50;nan
9935;BME280;5006;41.828;23.478;2022-07-18T03:06:58;91005.13;;;17.14;nan
9935;BME280;5006;41.828;23.478;2022-07-18T03:08:06;91003.81;;;17.25;nan
9935;BME280;5006;41.828;23.478;2022-07-18T03:09:11;91004.72;;;17.15;nan
9935;BME280;5006;41.828;23.478;2022-07-18T03:10:16;91001.66;;;17.13;nan
9935;BME280;5006;41.828;23.478;2022-07-18T03:11:21;91001.81;;;17.29;nan
9935;BME280;5006;41.828;23.478;2022-07-18T03:12:27;91001.34;;;17.08;nan
9935;BME280;5006;41.828;23.478;2022-07-18T03:13:32;91000.38;;;16.95;nan
9935;BME280;5006;41.828;23.478;2022-07-18T03:14:38;91005.75;;;16.68;nan
9935;BME280;5006;41.828;23.478;2022-07-18T03:15:42;91009.22;;;16.69;nan
9935;BME280;5006;41.828;23.478;2022-07-18T03:16:48;91007.56;;;17.05;nan
9935;BME280;5006;41.828;23.478;2022-07-18T03:17:53;91022.72;;;17.02;nan
9935;BME280;5006;41.828;23.478;2022-07-18T03:18:59;91010.56;;;16.54;nan
9935;BME280;5006;41.828;23.478;2022-07-18T03:20:05;91008.09;;;16.66;nan
9935;BME280;5006;41.828;23.478;2022-07-18T03:21:11;91013.75;;;16.45;nan
9935;BME280;5006;41.828;23.478;2022-07-18T03:22:15;91017.72;;;16.71;nan
9935;BME280;5006;41.828;23.478;2022-07-18T03:23:22;91001.91;;;16.96;nan
9935;BME280;5006;41.828;23.478;2022-07-18T03:24:27;91007.19;;;17.33;nan
9935;BME280;5006;41.828;23.478;2022-07-18T03:25:33;91008.41;;;17.28;nan
9935;BME280;5006;41.828;23.478;2022-07-18T03:26:38;91004.03;;;17.38;nan
9935;BME280;5006;41.828;23.478;2022-07-18T03:27:44;91007.75;;;17.47;nan
9935;BME280;5006;41.828;23.478;2022-07-18T03:28:48;91006.22;;;17.46;nan
9935;BME280;5006;41.828;23.478;2022-07-18T03:29:54;91012.00;;;17.48;nan
9935;BME280;5006;41.828;23.478;2022-07-18T03:30:59;91011.06;;;17.58;nan
9935;BME280;5006;41.828;23.478;2022-07-18T03:32:05;91011.25;;;17.18;nan
9935;BME280;5006;41.828;23.478;2022-07-18T03:33:11;91009.94;;;17.03;nan
9935;BME280;5006;41.828;23.478;2022-07-18T03:34:16;91010.19;;;17.12;nan
9935;BME280;5006;41.828;23.478;2022-07-18T03:35:22;91004.66;;;16.92;nan
9935;BME280;5006;41.828;23.478;2022-07-18T03:36:27;91007.84;;;16.87;nan
9935;BME280;5006;41.828;23.478;2022-07-18T03:37:32;91007.47;;;17.12;nan
9935;BME280;5006;41.828;23.478;2022-07-18T03:38:39;91004.72;;;17.15;nan
9935;BME280;5006;41.828;23.478;2022-07-18T03:39:47;91014.00;;;16.88;nan
9935;BME280;5006;41.828;23.478;2022-07-18T03:40:53;91009.56;;;17.01;nan
9935;BME280;5006;41.828;23.478;2022-07-18T03:41:58;91017.03;;;16.93;nan
9935;BME280;5006;41.828;23.478;2022-07-18T03:43:04;91014.78;;;17.15;nan
9935;BME280;5006;41.828;23.478;2022-07-18T03:44:10;91017.47;;;17.18;nan
9935;BME280;5006;41.828;23.478;2022-07-18T03:45:15;91018.94;;;17.23;nan
9935;BME280;5006;41.828;23.478;2022-07-18T03:46:21;91017.63;;;17.08;nan
9935;BME280;5006;41.828;23.478;2022-07-18T03:47:26;91018.06;;;17.29;nan
9935;BME280;5006;41.828;23.478;2022-07-18T03:48:32;91022.97;;;17.41;nan
9935;BME280;5006;41.828;23.478;2022-07-18T03:49:37;91021.09;;;17.61;nan
9935;BME280;5006;41.828;23.478;2022-07-18T03:50:43;91022.56;;;17.65;nan
9935;BME280;5006;41.828;23.478;2022-07-18T03:51:48;91019.50;;;17.63;nan
9935;BME280;5006;41.828;23.478;2022-07-18T03:52:54;91026.44;;;17.42;nan
9935;BME280;5006;41.828;23.478;2022-07-18T03:54:00;91031.16;;;17.38;nan
9935;BME280;5006;41.828;23.478;2022-07-18T03:55:06;91033.25;;;17.23;nan
9935;BME280;5006;41.828;23.478;2022-07-18T03:56:11;91036.28;;;17.29;nan
9935;BME280;5006;41.828;23.478;2022-07-18T03:57:17;91029.56;;;17.40;nan
9935;BME280;5006;41.828;23.478;2022-07-18T03:58:22;91032.28;;;17.40;nan
9935;BME280;5006;41.828;23.478;2022-07-18T03:59:28;91031.22;;;17.31;nan
9935;BME280;5006;41.828;23.478;2022-07-18T04:00:32;91045.91;;;17.07;nan
9935;BME280;5006;41.828;23.478;2022-07-18T04:01:38;91027.59;;;17.14;nan
9935;BME280;5006;41.828;23.478;2022-07-18T04:02:45;91025.69;;;17.41;nan
9935;BME280;5006;41.828;23.478;2022-07-18T04:03:51;91025.75;;;18.29;nan
9935;BME280;5006;41.828;23.478;2022-07-18T04:04:55;91028.03;;;17.62;nan
9935;BME280;5006;41.828;23.478;2022-07-18T04:06:01;91031.38;;;17.20;nan
9935;BME280;5006;41.828;23.478;2022-07-18T04:07:07;91035.31;;;18.37;nan
9935;BME280;5006;41.828;23.478;2022-07-18T04:08:12;91026.50;;;17.61;nan
9935;BME280;5006;41.828;23.478;2022-07-18T04:09:19;91029.13;;;17.42;nan
9935;BME280;5006;41.828;23.478;2022-07-18T04:10:23;91032.00;;;17.80;nan
9935;BME280;5006;41.828;23.478;2022-07-18T04:11:29;91033.78;;;17.90;nan
9935;BME280;5006;41.828;23.478;2022-07-18T04:12:34;91030.56;;;17.76;nan
9935;BME280;5006;41.828;23.478;2022-07-18T04:13:40;91031.72;;;17.75;nan
9935;BME280;5006;41.828;23.478;2022-07-18T04:14:46;91031.63;;;18.05;nan
9935;BME280;5006;41.828;23.478;2022-07-18T04:15:51;91033.50;;;17.85;nan
9935;BME280;5006;41.828;23.478;2022-07-18T04:16:56;91035.31;;;17.68;nan
9935;BME280;5006;41.828;23.478;2022-07-18T04:18:01;91039.28;;;18.10;nan
9935;BME280;5006;41.828;23.478;2022-07-18T04:19:07;91036.84;;;18.38;nan
9935;BME280;5006;41.828;23.478;2022-07-18T04:20:14;91029.75;;;18.44;nan
9935;BME280;5006;41.828;23.478;2022-07-18T04:21:20;91026.69;;;18.42;nan
9935;BME280;5006;41.828;23.478;2022-07-18T04:22:25;91029.22;;;18.53;nan
9935;BME280;5006;41.828;23.478;2022-07-18T04:23:30;91024.97;;;18.71;nan
9935;BME280;5006;41.828;23.478;2022-07-18T04:24:37;91025.44;;;18.47;nan
9935;BME280;5006;41.828;23.478;2022-07-18T04:25:42;91026.34;;;18.40;nan
9935;BME280;5006;41.828;23.478;2022-07-18T04:26:47;91023.84;;;18.49;nan
9935;BME280;5006;41.828;23.478;2022-07-18T04:27:54;91031.44;;;18.38;nan
9935;BME280;5006;41.828;23.478;2022-07-18T04:28:59;91020.97;;;18.56;nan
9935;BME280;5006;41.828;23.478;2022-07-18T04:30:06;91027.94;;;18.38;nan
9935;BME280;5006;41.828;23.478;2022-07-18T04:31:11;91026.41;;;18.37;nan
9935;BME280;5006;41.828;23.478;2022-07-18T04:32:16;91019.88;;;18.54;nan
9935;BME280;5006;41.828;23.478;2022-07-18T04:33:21;91020.91;;;18.60;nan
9935;BME280;5006;41.828;23.478;2022-07-18T04:34:27;91019.88;;;18.54;nan
9935;BME280;5006;41.828;23.478;2022-07-18T04:35:32;91023.22;;;18.81;nan
9935;BME280;5006;41.828;23.478;2022-07-18T04:36:40;91025.22;;;18.77;nan
9935;BME280;5006;41.828;23.478;2022-07-18T04:37:45;91022.66;;;18.50;nan
9935;BME280;5006;41.828;23.478;2022-07-18T04:38:50;91022.44;;;18.61;nan
9935;BME280;5006;41.828;23.478;2022-07-18T04:39:56;91027.25;;;18.73;nan
9935;BME280;5006;41.828;23.478;2022-07-18T04:41:02;91029.75;;;18.83;nan
9935;BME280;5006;41.828;23.478;2022-07-18T04:42:07;91029.91;;;18.96;nan
9935;BME280;5006;41.828;23.478;2022-07-18T04:43:13;91025.16;;;19.19;nan
9935;BME280;5006;41.828;23.478;2022-07-18T04:44:17;91032.66;;;19.12;nan
9935;BME280;5006;41.828;23.478;2022-07-18T04:45:23;91025.03;;;19.42;nan
9935;BME280;5006;41.828;23.478;2022-07-18T04:46:28;91032.94;;;19.37;nan
9935;BME280;5006;41.828;23.478;2022-07-18T04:47:33;91029.66;;;19.93;nan
9935;BME280;5006;41.828;23.478;2022-07-18T04:48:38;91036.44;;;20.49;nan
9935;BME280;5006;41.828;23.478;2022-07-18T04:49:43;91037.50;;;20.23;nan
9935;BME280;5006;41.828;23.478;2022-07-18T04:50:48;91048.69;;;20.57;nan
9935;BME280;5006;41.828;23.478;2022-07-18T04:51:54;91045.69;;;20.39;nan
9935;BME280;5006;41.828;23.478;2022-07-18T04:52:59;91044.44;;;20.56;nan
9935;BME280;5006;41.828;23.478;2022-07-18T04:54:05;91047.91;;;20.28;nan
9935;BME280;5006;41.828;23.478;2022-07-18T04:55:13;91048.66;;;20.28;nan
9935;BME280;5006;41.828;23.478;2022-07-18T04:56:19;91049.84;;;20.27;nan
9935;BME280;5006;41.828;23.478;2022-07-18T04:57:25;91049.00;;;20.30;nan
9935;BME280;5006;41.828;23.478;2022-07-18T04:58:30;91052.91;;;20.45;nan
9935;BME280;5006;41.828;23.478;2022-07-18T04:59:36;91055.13;;;20.79;nan
9935;BME280;5006;41.828;23.478;2022-07-18T05:00:41;91048.94;;;20.18;nan
9935;BME280;5006;41.828;23.478;2022-07-18T05:01:46;91053.38;;;20.12;nan
9935;BME280;5006;41.828;23.478;2022-07-18T05:02:53;91060.16;;;20.04;nan
9935;BME280;5006;41.828;23.478;2022-07-18T05:03:59;91058.03;;;20.43;nan
9935;BME280;5006;41.828;23.478;2022-07-18T05:05:05;91064.75;;;20.83;nan
9935;BME280;5006;41.828;23.478;2022-07-18T05:06:11;91054.00;;;20.92;nan
9935;BME280;5006;41.828;23.478;2022-07-18T05:07:17;91063.44;;;20.59;nan
9935;BME280;5006;41.828;23.478;2022-07-18T05:08:21;91065.34;;;20.75;nan
9935;BME280;5006;41.828;23.478;2022-07-18T05:09:27;91065.00;;;20.44;nan
9935;BME280;5006;41.828;23.478;2022-07-18T05:10:34;91058.94;;;20.53;nan
9935;BME280;5006;41.828;23.478;2022-07-18T05:11:40;91063.28;;;20.95;nan
9935;BME280;5006;41.828;23.478;2022-07-18T05:12:47;91053.56;;;20.49;nan
9935;BME280;5006;41.828;23.478;2022-07-18T05:13:54;91058.34;;;19.97;nan
9935;BME280;5006;41.828;23.478;2022-07-18T05:14:58;91060.88;;;20.52;nan
9935;BME280;5006;41.828;23.478;2022-07-18T05:16:04;91059.97;;;20.87;nan
9935;BME280;5006;41.828;23.478;2022-07-18T05:17:11;91051.56;;;21.64;nan
9935;BME280;5006;41.828;23.478;2022-07-18T05:18:16;91055.72;;;21.93;nan
9935;BME280;5006;41.828;23.478;2022-07-18T05:19:21;91056.84;;;21.42;nan
9935;BME280;5006;41.828;23.478;2022-07-18T05:20:26;91061.44;;;21.45;nan
9935;BME280;5006;41.828;23.478;2022-07-18T05:21:32;91049.44;;;21.55;nan
9935;BME280;5006;41.828;23.478;2022-07-18T05:22:37;91055.19;;;21.73;nan
9935;BME280;5006;41.828;23.478;2022-07-18T05:23:44;91044.88;;;22.14;nan
9935;BME280;5006;41.828;23.478;2022-07-18T05:24:51;91049.56;;;23.07;nan
9935;BME280;5006;41.828;23.478;2022-07-18T05:25:57;91047.41;;;23.02;nan
9935;BME280;5006;41.828;23.478;2022-07-18T05:27:02;91051.59;;;22.94;nan
9935;BME280;5006;41.828;23.478;2022-07-18T05:28:07;91039.34;;;22.64;nan
9935;BME280;5006;41.828;23.478;2022-07-18T05:29:13;91045.53;;;23.33;nan
9935;BME280;5006;41.828;23.478;2022-07-18T05:30:20;91049.50;;;23.84;nan
9935;BME280;5006;41.828;23.478;2022-07-18T05:31:25;91048.31;;;23.42;nan
9935;BME280;5006;41.828;23.478;2022-07-18T05:32:31;91043.97;;;23.53;nan
9935;BME280;5006;41.828;23.478;2022-07-18T05:33:36;91040.69;;;23.89;nan
9935;BME280;5006;41.828;23.478;2022-07-18T05:34:41;91041.94;;;23.45;nan
9935;BME280;5006;41.828;23.478;2022-07-18T05:35:46;91047.06;;;23.86;nan
9935;BME280;5006;41.828;23.478;2022-07-18T05:36:51;91046.84;;;23.80;nan
9935;BME280;5006;41.828;23.478;2022-07-18T05:37:56;91042.63;;;23.58;nan
9935;BME280;5006;41.828;23.478;2022-07-18T05:39:03;91052.53;;;24.16;nan
9935;BME280;5006;41.828;23.478;2022-07-18T05:40:10;91050.44;;;24.29;nan
9935;BME280;5006;41.828;23.478;2022-07-18T05:41:17;91047.81;;;24.26;nan
9935;BME280;5006;41.828;23.478;2022-07-18T05:42:22;91037.09;;;24.49;nan
9935;BME280;5006;41.828;23.478;2022-07-18T05:43:27;91040.06;;;24.90;nan
9935;BME280;5006;41.828;23.478;2022-07-18T05:44:32;91039.50;;;24.38;nan
9935;BME280;5006;41.828;23.478;2022-07-18T05:45:38;91040.97;;;24.30;nan
9935;BME280;5006;41.828;23.478;2022-07-18T05:46:43;91046.00;;;24.23;nan
9935;BME280;5006;41.828;23.478;2022-07-18T05:47:49;91046.47;;;24.21;nan
9935;BME280;5006;41.828;23.478;2022-07-18T05:48:53;91043.09;;;24.83;nan
9935;BME280;5006;41.828;23.478;2022-07-18T05:49:59;91043.91;;;24.27;nan
9935;BME280;5006;41.828;23.478;2022-07-18T05:51:05;91050.69;;;24.13;nan
9935;BME280;5006;41.828;23.478;2022-07-18T05:53:15;91051.44;;;23.53;nan
9935;BME280;5006;41.828;23.478;2022-07-18T05:54:21;91049.47;;;24.14;nan
9935;BME280;5006;41.828;23.478;2022-07-18T05:55:25;91052.03;;;23.26;nan
9935;BME280;5006;41.828;23.478;2022-07-18T05:56:33;91048.44;;;24.21;nan
9935;BME280;5006;41.828;23.478;2022-07-18T05:57:38;91056.06;;;23.43;nan
9935;BME280;5006;41.828;23.478;2022-07-18T05:58:44;91051.63;;;23.15;nan
9935;BME280;5006;41.828;23.478;2022-07-18T05:59:48;91055.94;;;23.04;nan
9935;BME280;5006;41.828;23.478;2022-07-18T06:00:54;91051.75;;;23.55;nan
9935;BME280;5006;41.828;23.478;2022-07-18T06:01:59;91053.94;;;23.38;nan
9935;BME280;5006;41.828;23.478;2022-07-18T06:03:05;91051.25;;;23.47;nan